sensor_id;sensor_type;location;lat;lon;timestamp;temperature;humidity
9425;DHT22;17139;52.140;11.636;2022-10-20T00:00:51;5.60;61.20
9425;DHT22;17139;52.140;11.636;2022-10-20T00:03:18;6.30;60.90
9425;DHT22;17139;52.140;11.636;2022-10-20T00:05:45;6.10;60.00
9425;DHT22;17139;52.140;11.636;2022-10-20T00:08:13;5.90;61.00
9425;DHT22;17139;52.140;11.636;2022-10-20T00:10:40;5.80;60.60
9425;DHT22;17139;52.140;11.636;2022-10-20T00:13:07;5.70;60.70
9425;DHT22;17139;52.140;11.636;2022-10-20T00:15:34;5.70;60.90
9425;DHT22;17139;52.140;11.636;2022-10-20T00:18:01;5.60;61.00
9425;DHT22;17139;52.140;11.636;2022-10-20T00:20:28;5.60;61.10
9425;DHT22;17139;52.140;11.636;2022-10-20T00:22:55;5.50;61.00
9425;DHT22;17139;52.140;11.636;2022-10-20T00:25:24;5.50;61.10
9425;DHT22;17139;52.140;11.636;2022-10-20T00:27:50;5.40;61.00
9425;DHT22;17139;52.140;11.636;2022-10-20T00:30:18;5.40;61.10
9425;DHT22;17139;52.140;11.636;2022-10-20T00:32:46;5.50;61.30
9425;DHT22;17139;52.140;11.636;2022-10-20T00:35:13;5.40;60.90
9425;DHT22;17139;52.140;11.636;2022-10-20T00:37:40;5.50;61.00
9425;DHT22;17139;52.140;11.636;2022-10-20T00:40:08;5.40;60.90
9425;DHT22;17139;52.140;11.636;2022-10-20T00:42:37;5.30;60.90
9425;DHT22;17139;52.140;11.636;2022-10-20T00:45:11;5.30;61.00
9425;DHT22;17139;52.140;11.636;2022-10-20T00:47:44;5.20;60.90
9425;DHT22;17139;52.140;11.636;2022-10-20T00:50:14;5.20;61.00
9425;DHT22;17139;52.140;11.636;2022-10-20T00:52:43;5.20;61.10
9425;DHT22;17139;52.140;11.636;2022-10-20T00:55:13;5.10;61.00
9425;DHT22;17139;52.140;11.636;2022-10-20T00:57:46;5.10;61.00
9425;DHT22;17139;52.140;11.636;2022-10-20T01:00:16;5.10;61.10
9425;DHT22;17139;52.140;11.636;2022-10-20T01:02:44;5.10;61.20
9425;DHT22;17139;52.140;11.636;2022-10-20T01:05:12;5.20;61.20
9425;DHT22;17139;52.140;11.636;2022-10-20T01:07:39;5.30;60.60
9425;DHT22;17139;52.140;11.636;2022-10-20T01:10:07;5.20;60.70
9425;DHT22;17139;52.140;11.636;2022-10-20T01:12:37;5.10;60.70
9425;DHT22;17139;52.140;11.636;2022-10-20T01:15:15;5.10;60.90
9425;DHT22;17139;52.140;11.636;2022-10-20T01:17:50;5.00;60.90
9425;DHT22;17139;52.140;11.636;2022-10-20T01:20:36;5.00;61.00
9425;DHT22;17139;52.140;11.636;2022-10-20T01:23:25;5.00;61.10
9425;DHT22;17139;52.140;11.636;2022-10-20T01:29:03;4.90;61.00
9425;DHT22;17139;52.140;11.636;2022-10-20T01:31:36;4.80;61.00
9425;DHT22;17139;52.140;11.636;2022-10-20T01:34:09;4.80;61.00
9425;DHT22;17139;52.140;11.636;2022-10-20T01:36:40;4.80;61.10
9425;DHT22;17139;52.140;11.636;2022-10-20T01:39:13;5.40;60.50
9425;DHT22;17139;52.140;11.636;2022-10-20T01:41:44;5.30;59.90
9425;DHT22;17139;52.140;11.636;2022-10-20T01:44:15;5.10;60.10
9425;DHT22;17139;52.140;11.636;2022-10-20T01:46:43;5.00;60.50
9425;DHT22;17139;52.140;11.636;2022-10-20T01:49:11;5.00;60.80
9425;DHT22;17139;52.140;11.636;2022-10-20T01:51:39;4.80;60.80
9425;DHT22;17139;52.140;11.636;2022-10-20T01:54:17;4.80;60.90
9425;DHT22;17139;52.140;11.636;2022-10-20T01:56:59;4.80;61.10
9425;DHT22;17139;52.140;11.636;2022-10-20T01:59:45;4.80;61.10
9425;DHT22;17139;52.140;11.636;2022-10-20T02:02:25;4.80;61.10
9425;DHT22;17139;52.140;11.636;2022-10-20T02:05:07;4.70;61.10
9425;DHT22;17139;52.140;11.636;2022-10-20T02:07:37;4.70;61.80
9425;DHT22;17139;52.140;11.636;2022-10-20T02:10:11;4.80;61.20
9425;DHT22;17139;52.140;11.636;2022-10-20T02:12:40;4.90;60.60
9425;DHT22;17139;52.140;11.636;2022-10-20T02:15:15;4.80;60.70
9425;DHT22;17139;52.140;11.636;2022-10-20T02:17:45;4.70;60.80
9425;DHT22;17139;52.140;11.636;2022-10-20T02:20:14;4.70;60.90
9425;DHT22;17139;52.140;11.636;2022-10-20T02:22:41;4.60;60.90
9425;DHT22;17139;52.140;11.636;2022-10-20T02:25:10;4.60;60.90
9425;DHT22;17139;52.140;11.636;2022-10-20T02:27:40;4.60;60.90
9425;DHT22;17139;52.140;11.636;2022-10-20T02:30:11;4.60;61.00
9425;DHT22;17139;52.140;11.636;2022-10-20T02:32:41;4.60;61.00
9425;DHT22;17139;52.140;11.636;2022-10-20T02:35:13;4.50;61.00
9425;DHT22;17139;52.140;11.636;2022-10-20T02:37:40;4.50;61.00
9425;DHT22;17139;52.140;11.636;2022-10-20T02:40:08;4.50;61.00
9425;DHT22;17139;52.140;11.636;2022-10-20T02:42:35;4.60;61.10
9425;DHT22;17139;52.140;11.636;2022-10-20T02:45:06;4.60;60.70
9425;DHT22;17139;52.140;11.636;2022-10-20T02:47:35;4.70;60.90
9425;DHT22;17139;52.140;11.636;2022-10-20T02:50:02;4.60;60.40
9425;DHT22;17139;52.140;11.636;2022-10-20T02:52:29;4.60;60.60
9425;DHT22;17139;52.140;11.636;2022-10-20T02:54:56;4.50;60.60
9425;DHT22;17139;52.140;11.636;2022-10-20T02:57:23;4.50;60.70
9425;DHT22;17139;52.140;11.636;2022-10-20T02:59:50;4.50;60.70
9425;DHT22;17139;52.140;11.636;2022-10-20T03:02:16;4.40;60.70
9425;DHT22;17139;52.140;11.636;2022-10-20T03:04:45;4.40;60.80
9425;DHT22;17139;52.140;11.636;2022-10-20T03:07:12;4.40;60.80
9425;DHT22;17139;52.140;11.636;2022-10-20T03:09:39;4.40;60.80
9425;DHT22;17139;52.140;11.636;2022-10-20T03:12:06;4.40;60.80
9425;DHT22;17139;52.140;11.636;2022-10-20T03:14:33;4.60;60.90
9425;DHT22;17139;52.140;11.636;2022-10-20T03:17:00;4.60;60.20
9425;DHT22;17139;52.140;11.636;2022-10-20T03:19:27;4.50;60.30
9425;DHT22;17139;52.140;11.636;2022-10-20T03:21:55;5.20;60.00
9425;DHT22;17139;52.140;11.636;2022-10-20T03:24:22;5.00;59.40
9425;DHT22;17139;52.140;11.636;2022-10-20T03:26:49;4.80;59.80
9425;DHT22;17139;52.140;11.636;2022-10-20T03:29:16;4.60;60.00
9425;DHT22;17139;52.140;11.636;2022-10-20T03:31:43;4.60;60.30
9425;DHT22;17139;52.140;11.636;2022-10-20T03:34:10;4.50;60.50
9425;DHT22;17139;52.140;11.636;2022-10-20T03:36:37;4.40;60.50
9425;DHT22;17139;52.140;11.636;2022-10-20T03:39:06;4.40;60.60
9425;DHT22;17139;52.140;11.636;2022-10-20T03:41:33;4.40;60.70
9425;DHT22;17139;52.140;11.636;2022-10-20T03:44:00;4.30;60.60
9425;DHT22;17139;52.140;11.636;2022-10-20T03:46:27;4.40;60.70
9425;DHT22;17139;52.140;11.636;2022-10-20T03:48:54;4.50;60.80
9425;DHT22;17139;52.140;11.636;2022-10-20T03:51:21;4.50;60.10
9425;DHT22;17139;52.140;11.636;2022-10-20T03:53:48;4.40;60.20
9425;DHT22;17139;52.140;11.636;2022-10-20T03:56:18;4.40;60.40
9425;DHT22;17139;52.140;11.636;2022-10-20T03:58:46;4.40;60.50
9425;DHT22;17139;52.140;11.636;2022-10-20T04:01:14;4.30;60.50
9425;DHT22;17139;52.140;11.636;2022-10-20T04:03:42;4.30;60.60
9425;DHT22;17139;52.140;11.636;2022-10-20T04:06:09;4.30;60.60
9425;DHT22;17139;52.140;11.636;2022-10-20T04:08:37;4.30;60.60
9425;DHT22;17139;52.140;11.636;2022-10-20T04:11:04;4.30;60.60
9425;DHT22;17139;52.140;11.636;2022-10-20T04:13:33;4.30;60.60
9425;DHT22;17139;52.140;11.636;2022-10-20T04:16:00;4.30;60.60
9425;DHT22;17139;52.140;11.636;2022-10-20T04:18:27;4.30;60.60
9425;DHT22;17139;52.140;11.636;2022-10-20T04:20:53;4.30;60.60
9425;DHT22;17139;52.140;11.636;2022-10-20T04:23:22;4.50;60.70
9425;DHT22;17139;52.140;11.636;2022-10-20T04:25:49;4.50;60.00
9425;DHT22;17139;52.140;11.636;2022-10-20T04:28:17;4.40;60.10
9425;DHT22;17139;52.140;11.636;2022-10-20T04:30:46;5.10;60.00
9425;DHT22;17139;52.140;11.636;2022-10-20T04:33:14;5.00;59.40
9425;DHT22;17139;52.140;11.636;2022-10-20T04:35:41;4.70;59.50
9425;DHT22;17139;52.140;11.636;2022-10-20T04:38:08;5.20;59.70
9425;DHT22;17139;52.140;11.636;2022-10-20T04:40:35;5.70;58.70
9425;DHT22;17139;52.140;11.636;2022-10-20T04:43:02;6.00;58.30
9425;DHT22;17139;52.140;11.636;2022-10-20T04:45:28;5.50;59.00
9425;DHT22;17139;52.140;11.636;2022-10-20T04:47:57;5.60;58.90
9425;DHT22;17139;52.140;11.636;2022-10-20T04:50:24;5.30;58.70
9425;DHT22;17139;52.140;11.636;2022-10-20T04:52:50;5.60;58.90
9425;DHT22;17139;52.140;11.636;2022-10-20T04:55:17;6.00;58.10
9425;DHT22;17139;52.140;11.636;2022-10-20T04:57:44;5.60;58.30
9425;DHT22;17139;52.140;11.636;2022-10-20T05:00:12;5.20;59.10
9425;DHT22;17139;52.140;11.636;2022-10-20T05:02:39;4.90;59.80
9425;DHT22;17139;52.140;11.636;2022-10-20T05:05:08;4.70;60.10
9425;DHT22;17139;52.140;11.636;2022-10-20T05:07:35;4.60;60.40
9425;DHT22;17139;52.140;11.636;2022-10-20T05:10:03;4.50;60.60
9425;DHT22;17139;52.140;11.636;2022-10-20T05:12:30;4.90;60.50
9425;DHT22;17139;52.140;11.636;2022-10-20T05:14:57;4.90;59.80
9425;DHT22;17139;52.140;11.636;2022-10-20T05:17:24;5.10;59.60
9425;DHT22;17139;52.140;11.636;2022-10-20T05:19:51;4.90;59.30
9425;DHT22;17139;52.140;11.636;2022-10-20T05:22:19;4.70;59.60
9425;DHT22;17139;52.140;11.636;2022-10-20T05:24:46;4.50;60.00
9425;DHT22;17139;52.140;11.636;2022-10-20T05:27:13;4.40;60.30
9425;DHT22;17139;52.140;11.636;2022-10-20T05:29:40;4.30;60.50
9425;DHT22;17139;52.140;11.636;2022-10-20T05:32:07;4.20;60.60
9425;DHT22;17139;52.140;11.636;2022-10-20T05:34:34;4.20;60.70
9425;DHT22;17139;52.140;11.636;2022-10-20T05:37:00;4.10;60.70
9425;DHT22;17139;52.140;11.636;2022-10-20T05:39:29;4.10;60.70
9425;DHT22;17139;52.140;11.636;2022-10-20T05:41:56;4.10;60.70
9425;DHT22;17139;52.140;11.636;2022-10-20T05:44:23;4.00;60.60
9425;DHT22;17139;52.140;11.636;2022-10-20T05:46:49;4.00;60.60
9425;DHT22;17139;52.140;11.636;2022-10-20T05:49:16;4.00;60.70
9425;DHT22;17139;52.140;11.636;2022-10-20T05:51:44;4.00;60.70
9425;DHT22;17139;52.140;11.636;2022-10-20T05:54:13;3.90;60.60
9425;DHT22;17139;52.140;11.636;2022-10-20T05:56:42;3.90;60.60
9425;DHT22;17139;52.140;11.636;2022-10-20T05:59:09;3.90;61.40
9425;DHT22;17139;52.140;11.636;2022-10-20T06:01:36;3.90;60.70
9425;DHT22;17139;52.140;11.636;2022-10-20T06:04:13;3.90;60.70
9425;DHT22;17139;52.140;11.636;2022-10-20T06:06:41;3.90;60.70
9425;DHT22;17139;52.140;11.636;2022-10-20T06:09:09;3.90;60.60
9425;DHT22;17139;52.140;11.636;2022-10-20T06:11:37;4.40;60.90
9425;DHT22;17139;52.140;11.636;2022-10-20T06:14:05;4.40;60.00
9425;DHT22;17139;52.140;11.636;2022-10-20T06:16:32;4.50;60.40
9425;DHT22;17139;52.140;11.636;2022-10-20T06:18:59;4.50;60.00
9425;DHT22;17139;52.140;11.636;2022-10-20T06:21:28;4.50;60.20
9425;DHT22;17139;52.140;11.636;2022-10-20T06:23:57;4.50;60.40
9425;DHT22;17139;52.140;11.636;2022-10-20T06:26:26;4.60;60.40
9425;DHT22;17139;52.140;11.636;2022-10-20T06:28:55;4.60;60.20
9425;DHT22;17139;52.140;11.636;2022-10-20T06:31:25;4.80;60.10
9425;DHT22;17139;52.140;11.636;2022-10-20T06:33:53;4.90;60.60
9425;DHT22;17139;52.140;11.636;2022-10-20T06:36:21;5.00;59.90
9425;DHT22;17139;52.140;11.636;2022-10-20T06:38:51;5.10;59.90
9425;DHT22;17139;52.140;11.636;2022-10-20T06:41:19;5.20;59.80
9425;DHT22;17139;52.140;11.636;2022-10-20T06:43:46;5.80;60.00
9425;DHT22;17139;52.140;11.636;2022-10-20T06:46:14;5.80;59.10
9425;DHT22;17139;52.140;11.636;2022-10-20T06:48:44;5.80;59.50
9425;DHT22;17139;52.140;11.636;2022-10-20T06:51:12;5.80;59.30
9425;DHT22;17139;52.140;11.636;2022-10-20T06:53:40;5.70;59.30
9425;DHT22;17139;52.140;11.636;2022-10-20T06:56:10;5.80;59.60
9425;DHT22;17139;52.140;11.636;2022-10-20T06:58:38;5.70;59.60
9425;DHT22;17139;52.140;11.636;2022-10-20T07:01:07;5.80;59.60
9425;DHT22;17139;52.140;11.636;2022-10-20T07:03:36;5.80;59.60
9425;DHT22;17139;52.140;11.636;2022-10-20T07:06:06;5.80;59.60
9425;DHT22;17139;52.140;11.636;2022-10-20T07:08:35;5.80;59.60
9425;DHT22;17139;52.140;11.636;2022-10-20T07:11:03;5.90;59.80
9425;DHT22;17139;52.140;11.636;2022-10-20T07:13:32;5.90;59.80
9425;DHT22;17139;52.140;11.636;2022-10-20T07:15:59;6.50;59.20
9425;DHT22;17139;52.140;11.636;2022-10-20T07:18:27;6.50;58.30
9425;DHT22;17139;52.140;11.636;2022-10-20T07:20:56;6.50;58.60
9425;DHT22;17139;52.140;11.636;2022-10-20T07:23:25;6.50;58.50
9425;DHT22;17139;52.140;11.636;2022-10-20T07:25:59;6.50;58.70
9425;DHT22;17139;52.140;11.636;2022-10-20T07:28:26;6.50;59.30
9425;DHT22;17139;52.140;11.636;2022-10-20T07:30:53;6.40;58.60
9425;DHT22;17139;52.140;11.636;2022-10-20T07:33:20;6.40;58.70
9425;DHT22;17139;52.140;11.636;2022-10-20T07:35:47;6.50;58.80
9425;DHT22;17139;52.140;11.636;2022-10-20T07:38:15;6.50;58.90
9425;DHT22;17139;52.140;11.636;2022-10-20T07:40:43;6.50;58.80
9425;DHT22;17139;52.140;11.636;2022-10-20T07:43:10;6.60;58.80
9425;DHT22;17139;52.140;11.636;2022-10-20T07:45:37;6.70;58.80
9425;DHT22;17139;52.140;11.636;2022-10-20T07:48:04;6.90;59.30
9425;DHT22;17139;52.140;11.636;2022-10-20T07:50:32;7.00;58.70
9425;DHT22;17139;52.140;11.636;2022-10-20T07:52:58;7.00;58.70
9425;DHT22;17139;52.140;11.636;2022-10-20T07:55:25;7.00;58.70
9425;DHT22;17139;52.140;11.636;2022-10-20T07:57:54;7.00;58.80
9425;DHT22;17139;52.140;11.636;2022-10-20T08:00:21;7.00;58.90
9425;DHT22;17139;52.140;11.636;2022-10-20T08:02:48;7.00;58.90
9425;DHT22;17139;52.140;11.636;2022-10-20T08:05:15;7.10;58.90
9425;DHT22;17139;52.140;11.636;2022-10-20T08:07:42;7.10;58.90
9425;DHT22;17139;52.140;11.636;2022-10-20T08:10:09;7.20;59.00
9425;DHT22;17139;52.140;11.636;2022-10-20T08:12:36;7.30;59.20
9425;DHT22;17139;52.140;11.636;2022-10-20T08:15:05;7.30;58.90
9425;DHT22;17139;52.140;11.636;2022-10-20T08:17:32;7.40;59.00
9425;DHT22;17139;52.140;11.636;2022-10-20T08:19:59;7.60;59.30
9425;DHT22;17139;52.140;11.636;2022-10-20T08:22:26;7.60;58.80
9425;DHT22;17139;52.140;11.636;2022-10-20T08:24:53;7.70;59.30
9425;DHT22;17139;52.140;11.636;2022-10-20T08:27:19;7.70;58.80
9425;DHT22;17139;52.140;11.636;2022-10-20T08:29:47;7.70;59.00
9425;DHT22;17139;52.140;11.636;2022-10-20T08:32:15;7.70;59.20
9425;DHT22;17139;52.140;11.636;2022-10-20T08:34:42;7.70;59.20
9425;DHT22;17139;52.140;11.636;2022-10-20T08:37:11;7.80;59.30
9425;DHT22;17139;52.140;11.636;2022-10-20T08:39:37;7.80;59.20
9425;DHT22;17139;52.140;11.636;2022-10-20T08:42:05;7.80;59.20
9425;DHT22;17139;52.140;11.636;2022-10-20T08:44:33;7.90;59.30
9425;DHT22;17139;52.140;11.636;2022-10-20T08:47:03;7.90;59.30
9425;DHT22;17139;52.140;11.636;2022-10-20T08:49:32;7.90;59.30
9425;DHT22;17139;52.140;11.636;2022-10-20T08:52:00;7.90;59.40
9425;DHT22;17139;52.140;11.636;2022-10-20T08:54:27;7.90;59.30
9425;DHT22;17139;52.140;11.636;2022-10-20T08:56:54;7.90;59.30
9425;DHT22;17139;52.140;11.636;2022-10-20T08:59:25;8.20;59.90
9425;DHT22;17139;52.140;11.636;2022-10-20T09:01:53;8.20;59.10
9425;DHT22;17139;52.140;11.636;2022-10-20T09:04:23;8.10;59.10
9425;DHT22;17139;52.140;11.636;2022-10-20T09:06:55;8.10;59.30
9425;DHT22;17139;52.140;11.636;2022-10-20T09:09:23;8.00;59.20
9425;DHT22;17139;52.140;11.636;2022-10-20T09:11:51;8.00;59.20
9425;DHT22;17139;52.140;11.636;2022-10-20T09:14:21;8.00;59.30
9425;DHT22;17139;52.140;11.636;2022-10-20T09:16:48;8.00;59.40
9425;DHT22;17139;52.140;11.636;2022-10-20T09:19:17;7.90;59.40
9425;DHT22;17139;52.140;11.636;2022-10-20T09:21:48;8.00;59.40
9425;DHT22;17139;52.140;11.636;2022-10-20T09:24:20;8.00;59.40
9425;DHT22;17139;52.140;11.636;2022-10-20T09:26:49;8.00;59.40
9425;DHT22;17139;52.140;11.636;2022-10-20T09:29:18;7.90;59.40
9425;DHT22;17139;52.140;11.636;2022-10-20T09:31:47;8.60;58.90
9425;DHT22;17139;52.140;11.636;2022-10-20T09:34:27;8.50;58.50
9425;DHT22;17139;52.140;11.636;2022-10-20T09:36:57;8.30;58.90
9425;DHT22;17139;52.140;11.636;2022-10-20T09:39:31;8.20;58.80
9425;DHT22;17139;52.140;11.636;2022-10-20T09:42:02;8.10;59.00
9425;DHT22;17139;52.140;11.636;2022-10-20T09:44:31;8.10;59.20
9425;DHT22;17139;52.140;11.636;2022-10-20T09:47:00;8.00;59.20
9425;DHT22;17139;52.140;11.636;2022-10-20T09:49:29;8.00;59.30
9425;DHT22;17139;52.140;11.636;2022-10-20T09:51:59;8.10;60.10
9425;DHT22;17139;52.140;11.636;2022-10-20T09:54:28;8.10;59.30
9425;DHT22;17139;52.140;11.636;2022-10-20T09:57:03;8.80;58.80
9425;DHT22;17139;52.140;11.636;2022-10-20T09:59:33;8.70;58.50
9425;DHT22;17139;52.140;11.636;2022-10-20T10:02:03;9.20;58.60
9425;DHT22;17139;52.140;11.636;2022-10-20T10:04:33;9.00;58.00
9425;DHT22;17139;52.140;11.636;2022-10-20T10:07:01;8.80;58.40
9425;DHT22;17139;52.140;11.636;2022-10-20T10:09:31;8.70;58.70
9425;DHT22;17139;52.140;11.636;2022-10-20T10:12:01;8.60;59.00
9425;DHT22;17139;52.140;11.636;2022-10-20T10:14:30;8.60;59.20
9425;DHT22;17139;52.140;11.636;2022-10-20T10:16:58;8.60;59.10
9425;DHT22;17139;52.140;11.636;2022-10-20T10:19:28;8.60;59.10
9425;DHT22;17139;52.140;11.636;2022-10-20T10:21:57;8.70;59.20
9425;DHT22;17139;52.140;11.636;2022-10-20T10:24:35;8.70;59.20
9425;DHT22;17139;52.140;11.636;2022-10-20T10:27:03;8.70;59.20
9425;DHT22;17139;52.140;11.636;2022-10-20T10:29:33;9.30;58.30
9425;DHT22;17139;52.140;11.636;2022-10-20T10:32:02;9.20;58.20
9425;DHT22;17139;52.140;11.636;2022-10-20T10:34:46;9.40;57.90
9425;DHT22;17139;52.140;11.636;2022-10-20T10:37:17;9.30;58.00
9425;DHT22;17139;52.140;11.636;2022-10-20T10:39:46;9.10;58.50
9425;DHT22;17139;52.140;11.636;2022-10-20T10:42:37;9.10;58.80
9425;DHT22;17139;52.140;11.636;2022-10-20T10:45:17;9.10;58.90
9425;DHT22;17139;52.140;11.636;2022-10-20T10:48:10;9.00;58.90
9425;DHT22;17139;52.140;11.636;2022-10-20T10:50:50;9.00;58.90
9425;DHT22;17139;52.140;11.636;2022-10-20T10:53:26;9.00;59.00
9425;DHT22;17139;52.140;11.636;2022-10-20T10:56:04;9.10;59.10
9425;DHT22;17139;52.140;11.636;2022-10-20T10:58:44;9.10;59.10
9425;DHT22;17139;52.140;11.636;2022-10-20T11:01:36;9.30;59.00
9425;DHT22;17139;52.140;11.636;2022-10-20T11:07:11;9.70;58.30
9425;DHT22;17139;52.140;11.636;2022-10-20T11:09:49;9.60;58.30
9425;DHT22;17139;52.140;11.636;2022-10-20T11:12:44;9.50;58.60
9425;DHT22;17139;52.140;11.636;2022-10-20T11:15:23;9.40;58.80
9425;DHT22;17139;52.140;11.636;2022-10-20T11:18:01;9.40;59.00
9425;DHT22;17139;52.140;11.636;2022-10-20T11:20:38;9.40;59.10
9425;DHT22;17139;52.140;11.636;2022-10-20T11:23:23;9.40;59.10
9425;DHT22;17139;52.140;11.636;2022-10-20T11:26:02;9.40;59.20
9425;DHT22;17139;52.140;11.636;2022-10-20T11:28:37;9.30;59.20
9425;DHT22;17139;52.140;11.636;2022-10-20T11:31:16;9.30;59.20
9425;DHT22;17139;52.140;11.636;2022-10-20T11:33:47;9.70;58.90
9425;DHT22;17139;52.140;11.636;2022-10-20T11:36:18;9.70;58.70
9425;DHT22;17139;52.140;11.636;2022-10-20T11:38:49;9.80;58.70
9425;DHT22;17139;52.140;11.636;2022-10-20T11:41:21;9.80;58.60
9425;DHT22;17139;52.140;11.636;2022-10-20T11:43:56;9.70;58.70
9425;DHT22;17139;52.140;11.636;2022-10-20T11:46:29;9.70;58.90
9425;DHT22;17139;52.140;11.636;2022-10-20T11:48:57;9.70;59.00
9425;DHT22;17139;52.140;11.636;2022-10-20T11:52:03;9.80;59.10
9425;DHT22;17139;52.140;11.636;2022-10-20T11:54:55;9.80;58.90
9425;DHT22;17139;52.140;11.636;2022-10-20T11:57:35;9.80;59.00
9425;DHT22;17139;52.140;11.636;2022-10-20T12:03:29;9.90;59.10
9425;DHT22;17139;52.140;11.636;2022-10-20T12:09:40;10.00;58.90
9425;DHT22;17139;52.140;11.636;2022-10-20T12:12:13;10.00;59.10
9425;DHT22;17139;52.140;11.636;2022-10-20T12:14:43;9.90;59.20
9425;DHT22;17139;52.140;11.636;2022-10-20T12:17:21;10.00;59.20
9425;DHT22;17139;52.140;11.636;2022-10-20T12:19:51;10.10;59.20
9425;DHT22;17139;52.140;11.636;2022-10-20T12:22:40;10.10;59.20
9425;DHT22;17139;52.140;11.636;2022-10-20T12:25:18;10.30;59.20
9425;DHT22;17139;52.140;11.636;2022-10-20T12:30:53;10.40;59.00
9425;DHT22;17139;52.140;11.636;2022-10-20T12:33:38;10.50;59.00
9425;DHT22;17139;52.140;11.636;2022-10-20T12:36:27;10.60;58.80
9425;DHT22;17139;52.140;11.636;2022-10-20T12:39:14;10.90;58.70
9425;DHT22;17139;52.140;11.636;2022-10-20T12:41:53;11.00;58.60
9425;DHT22;17139;52.140;11.636;2022-10-20T12:44:21;11.20;58.60
9425;DHT22;17139;52.140;11.636;2022-10-20T12:46:53;11.40;58.50
9425;DHT22;17139;52.140;11.636;2022-10-20T12:49:27;11.60;58.30
9425;DHT22;17139;52.140;11.636;2022-10-20T12:51:56;11.70;58.20
9425;DHT22;17139;52.140;11.636;2022-10-20T12:54:28;11.90;58.20
9425;DHT22;17139;52.140;11.636;2022-10-20T12:57:01;12.00;58.10
9425;DHT22;17139;52.140;11.636;2022-10-20T12:59:39;12.10;58.00
9425;DHT22;17139;52.140;11.636;2022-10-20T13:02:43;12.20;57.90
9425;DHT22;17139;52.140;11.636;2022-10-20T13:05:45;12.20;57.90
9425;DHT22;17139;52.140;11.636;2022-10-20T13:08:34;12.20;58.10
9425;DHT22;17139;52.140;11.636;2022-10-20T13:20:18;12.30;58.20
9425;DHT22;17139;52.140;11.636;2022-10-20T13:22:48;12.30;58.30
9425;DHT22;17139;52.140;11.636;2022-10-20T13:25:27;12.20;58.40
9425;DHT22;17139;52.140;11.636;2022-10-20T13:28:02;12.20;58.50
9425;DHT22;17139;52.140;11.636;2022-10-20T13:30:30;12.20;58.60
9425;DHT22;17139;52.140;11.636;2022-10-20T13:33:04;12.10;58.70
9425;DHT22;17139;52.140;11.636;2022-10-20T13:35:36;12.10;58.70
9425;DHT22;17139;52.140;11.636;2022-10-20T13:38:14;12.10;58.70
9425;DHT22;17139;52.140;11.636;2022-10-20T13:40:49;12.10;58.70
9425;DHT22;17139;52.140;11.636;2022-10-20T13:43:41;12.00;58.80
9425;DHT22;17139;52.140;11.636;2022-10-20T13:46:23;12.90;56.70
9425;DHT22;17139;52.140;11.636;2022-10-20T13:49:09;12.70;57.40
9425;DHT22;17139;52.140;11.636;2022-10-20T13:51:45;12.90;57.00
9425;DHT22;17139;52.140;11.636;2022-10-20T13:54:21;12.60;57.60
9425;DHT22;17139;52.140;11.636;2022-10-20T13:56:50;12.50;58.10
9425;DHT22;17139;52.140;11.636;2022-10-20T13:59:19;12.30;58.90
9425;DHT22;17139;52.140;11.636;2022-10-20T14:01:50;12.40;58.50
9425;DHT22;17139;52.140;11.636;2022-10-20T14:04:26;12.30;58.50
9425;DHT22;17139;52.140;11.636;2022-10-20T14:06:54;12.30;58.70
9425;DHT22;17139;52.140;11.636;2022-10-20T14:09:23;12.30;58.80
9425;DHT22;17139;52.140;11.636;2022-10-20T14:11:53;12.20;58.70
9425;DHT22;17139;52.140;11.636;2022-10-20T14:14:24;12.20;58.70
9425;DHT22;17139;52.140;11.636;2022-10-20T14:16:53;12.20;58.80
9425;DHT22;17139;52.140;11.636;2022-10-20T14:19:22;12.20;58.90
9425;DHT22;17139;52.140;11.636;2022-10-20T14:21:53;12.10;58.80
9425;DHT22;17139;52.140;11.636;2022-10-20T14:24:28;12.30;58.50
9425;DHT22;17139;52.140;11.636;2022-10-20T14:26:56;12.20;58.60
9425;DHT22;17139;52.140;11.636;2022-10-20T14:29:26;12.10;58.80
9425;DHT22;17139;52.140;11.636;2022-10-20T14:31:54;12.00;59.10
9425;DHT22;17139;52.140;11.636;2022-10-20T14:34:24;11.90;59.20
9425;DHT22;17139;52.140;11.636;2022-10-20T14:36:53;11.70;59.30
9425;DHT22;17139;52.140;11.636;2022-10-20T14:39:31;11.60;59.50
9425;DHT22;17139;52.140;11.636;2022-10-20T14:41:59;11.60;59.50
9425;DHT22;17139;52.140;11.636;2022-10-20T14:44:27;11.50;59.80
9425;DHT22;17139;52.140;11.636;2022-10-20T14:46:57;11.40;59.80
9425;DHT22;17139;52.140;11.636;2022-10-20T14:49:27;11.30;59.80
9425;DHT22;17139;52.140;11.636;2022-10-20T14:51:56;11.30;59.80
9425;DHT22;17139;52.140;11.636;2022-10-20T14:54:33;11.30;59.90
9425;DHT22;17139;52.140;11.636;2022-10-20T14:59:49;11.90;58.30
9425;DHT22;17139;52.140;11.636;2022-10-20T15:02:20;11.60;58.70
9425;DHT22;17139;52.140;11.636;2022-10-20T15:04:49;11.40;59.30
9425;DHT22;17139;52.140;11.636;2022-10-20T15:07:21;11.20;59.60
9425;DHT22;17139;52.140;11.636;2022-10-20T15:09:51;11.20;59.90
9425;DHT22;17139;52.140;11.636;2022-10-20T15:12:20;11.10;60.00
9425;DHT22;17139;52.140;11.636;2022-10-20T15:14:50;11.00;60.10
9425;DHT22;17139;52.140;11.636;2022-10-20T15:17:35;11.00;60.20
9425;DHT22;17139;52.140;11.636;2022-10-20T15:20:32;10.90;60.10
9425;DHT22;17139;52.140;11.636;2022-10-20T15:23:00;10.90;60.20
9425;DHT22;17139;52.140;11.636;2022-10-20T15:25:34;11.60;58.70
9425;DHT22;17139;52.140;11.636;2022-10-20T15:28:21;11.40;58.80
9425;DHT22;17139;52.140;11.636;2022-10-20T15:30:49;11.90;58.10
9425;DHT22;17139;52.140;11.636;2022-10-20T15:33:16;11.50;58.70
9425;DHT22;17139;52.140;11.636;2022-10-20T15:35:43;11.30;59.20
9425;DHT22;17139;52.140;11.636;2022-10-20T15:38:12;11.10;59.50
9425;DHT22;17139;52.140;11.636;2022-10-20T15:40:41;11.00;59.70
9425;DHT22;17139;52.140;11.636;2022-10-20T15:43:10;11.00;60.00
9425;DHT22;17139;52.140;11.636;2022-10-20T15:45:40;11.00;60.10
9425;DHT22;17139;52.140;11.636;2022-10-20T15:48:08;10.90;60.10
9425;DHT22;17139;52.140;11.636;2022-10-20T15:50:36;10.90;60.10
9425;DHT22;17139;52.140;11.636;2022-10-20T15:53:03;10.90;60.20
9425;DHT22;17139;52.140;11.636;2022-10-20T15:55:31;10.90;60.10
9425;DHT22;17139;52.140;11.636;2022-10-20T15:58:00;11.70;58.50
9425;DHT22;17139;52.140;11.636;2022-10-20T16:00:28;11.40;58.60
9425;DHT22;17139;52.140;11.636;2022-10-20T16:02:55;11.90;58.00
9425;DHT22;17139;52.140;11.636;2022-10-20T16:05:23;11.60;58.40
9425;DHT22;17139;52.140;11.636;2022-10-20T16:07:51;11.30;59.00
9425;DHT22;17139;52.140;11.636;2022-10-20T16:10:20;11.10;59.50
9425;DHT22;17139;52.140;11.636;2022-10-20T16:12:47;11.40;58.80
9425;DHT22;17139;52.140;11.636;2022-10-20T16:15:16;11.20;58.90
9425;DHT22;17139;52.140;11.636;2022-10-20T16:17:44;10.90;59.40
9425;DHT22;17139;52.140;11.636;2022-10-20T16:20:12;11.20;59.20
9425;DHT22;17139;52.140;11.636;2022-10-20T16:22:39;11.60;58.00
9425;DHT22;17139;52.140;11.636;2022-10-20T16:25:06;11.30;58.50
9425;DHT22;17139;52.140;11.636;2022-10-20T16:27:34;11.50;58.40
9425;DHT22;17139;52.140;11.636;2022-10-20T16:30:01;11.20;58.70
9425;DHT22;17139;52.140;11.636;2022-10-20T16:32:30;10.90;59.30